sensor_id;sensor_type;location;lat;lon;timestamp;pressure;altitude;pressure_sealevel;temperature;humidity
18697;BME280;22617;43.690;27.956;2023-05-20T00:01:01;98963.59;;;16.86;69.52
18697;BME280;22617;43.690;27.956;2023-05-20T00:06:04;98978.56;;;16.84;69.95
18697;BME280;22617;43.690;27.956;2023-05-20T00:11:08;98975.13;;;16.82;70.82
18697;BME280;22617;43.690;27.956;2023-05-20T00:16:13;98972.47;;;16.83;71.04
18697;BME280;22617;43.690;27.956;2023-05-20T00:21:17;98959.50;;;16.76;70.70
18697;BME280;22617;43.690;27.956;2023-05-20T00:26:21;98941.53;;;16.61;70.83
18697;BME280;22617;43.690;27.956;2023-05-20T00:31:30;98958.47;;;16.81;70.41
18697;BME280;22617;43.690;27.956;2023-05-20T00:36:34;98945.63;;;16.71;70.87
18697;BME280;22617;43.690;27.956;2023-05-20T00:41:37;98949.09;;;16.73;70.86
18697;BME280;22617;43.690;27.956;2023-05-20T00:46:43;98938.91;;;16.61;71.53
18697;BME280;22617;43.690;27.956;2023-05-20T00:51:47;98932.63;;;16.65;71.61
18697;BME280;22617;43.690;27.956;2023-05-20T00:56:51;98932.78;;;16.60;71.73
18697;BME280;22617;43.690;27.956;2023-05-20T01:01:56;98928.38;;;16.61;72.24
18697;BME280;22617;43.690;27.956;2023-05-20T01:07:01;98930.22;;;16.59;72.38
18697;BME280;22617;43.690;27.956;2023-05-20T01:12:12;98935.47;;;16.59;72.23
18697;BME280;22617;43.690;27.956;2023-05-20T01:17:19;98936.38;;;16.56;72.59
18697;BME280;22617;43.690;27.956;2023-05-20T01:22:25;98929.34;;;16.56;72.91
18697;BME280;22617;43.690;27.956;2023-05-20T01:27:30;98929.28;;;16.60;72.87
18697;BME280;22617;43.690;27.956;2023-05-20T01:32:36;98925.19;;;16.49;73.26
18697;BME280;22617;43.690;27.956;2023-05-20T01:37:43;98936.50;;;16.51;73.92
18697;BME280;22617;43.690;27.956;2023-05-20T01:42:48;98927.81;;;16.49;73.22
18697;BME280;22617;43.690;27.956;2023-05-20T01:47:54;98925.84;;;16.56;72.93
18697;BME280;22617;43.690;27.956;2023-05-20T01:53:00;98925.84;;;16.56;73.03
18697;BME280;22617;43.690;27.956;2023-05-20T01:58:05;98938.97;;;16.57;73.12
18697;BME280;22617;43.690;27.956;2023-05-20T02:03:10;98945.00;;;16.63;73.22
18697;BME280;22617;43.690;27.956;2023-05-20T02:08:15;98951.06;;;16.65;72.54
18697;BME280;22617;43.690;27.956;2023-05-20T02:13:18;98951.28;;;16.55;73.81
18697;BME280;22617;43.690;27.956;2023-05-20T02:18:22;98946.00;;;16.59;73.75
18697;BME280;22617;43.690;27.956;2023-05-20T02:23:29;98953.75;;;16.63;73.90
18697;BME280;22617;43.690;27.956;2023-05-20T02:28:33;98965.03;;;16.67;74.38
18697;BME280;22617;43.690;27.956;2023-05-20T02:33:38;98972.72;;;16.43;75.17
18697;BME280;22617;43.690;27.956;2023-05-20T02:38:44;98977.41;;;16.31;76.42
18697;BME280;22617;43.690;27.956;2023-05-20T02:43:48;98985.22;;;16.35;76.24
18697;BME280;22617;43.690;27.956;2023-05-20T02:48:52;98985.63;;;16.20;77.21
18697;BME280;22617;43.690;27.956;2023-05-20T02:53:58;98985.63;;;16.20;78.14
18697;BME280;22617;43.690;27.956;2023-05-20T02:59:02;98987.56;;;16.12;78.65
18697;BME280;22617;43.690;27.956;2023-05-20T03:04:07;98982.13;;;16.20;79.03
18697;BME280;22617;43.690;27.956;2023-05-20T03:09:13;98984.34;;;16.35;79.04
18697;BME280;22617;43.690;27.956;2023-05-20T03:14:16;98989.00;;;16.25;78.61
18697;BME280;22617;43.690;27.956;2023-05-20T03:19:20;98990.63;;;16.29;79.13
18697;BME280;22617;43.690;27.956;2023-05-20T03:24:25;98995.19;;;16.23;79.00
18697;BME280;22617;43.690;27.956;2023-05-20T03:29:29;99003.06;;;16.23;79.26
18697;BME280;22617;43.690;27.956;2023-05-20T03:34:34;99008.31;;;16.24;79.26
18697;BME280;22617;43.690;27.956;2023-05-20T03:39:39;99006.59;;;16.22;79.20
18697;BME280;22617;43.690;27.956;2023-05-20T03:44:43;99006.84;;;16.12;80.67
18697;BME280;22617;43.690;27.956;2023-05-20T03:49:47;99005.31;;;16.05;80.72
18697;BME280;22617;43.690;27.956;2023-05-20T03:54:53;99010.84;;;15.93;81.58
18697;BME280;22617;43.690;27.956;2023-05-20T03:59:57;98997.06;;;15.85;82.60
18697;BME280;22617;43.690;27.956;2023-05-20T04:05:01;98991.38;;;15.68;83.01
18697;BME280;22617;43.690;27.956;2023-05-20T04:10:08;98996.00;;;15.58;83.62
18697;BME280;22617;43.690;27.956;2023-05-20T04:15:11;98993.88;;;15.73;82.85
18697;BME280;22617;43.690;27.956;2023-05-20T04:20:26;98988.13;;;15.57;83.85
18697;BME280;22617;43.690;27.956;2023-05-20T04:25:33;98985.88;;;15.77;83.37
18697;BME280;22617;43.690;27.956;2023-05-20T04:30:38;98976.28;;;15.75;82.29
18697;BME280;22617;43.690;27.956;2023-05-20T04:35:44;98955.94;;;15.47;83.55
18697;BME280;22617;43.690;27.956;2023-05-20T04:40:51;98947.66;;;15.27;84.47
18697;BME280;22617;43.690;27.956;2023-05-20T04:45:55;98943.06;;;15.37;84.26
18697;BME280;22617;43.690;27.956;2023-05-20T04:51:02;98957.03;;;15.39;83.25
18697;BME280;22617;43.690;27.956;2023-05-20T04:56:07;98965.59;;;15.45;82.68
18697;BME280;22617;43.690;27.956;2023-05-20T05:01:10;98967.25;;;15.51;82.78
18697;BME280;22617;43.690;27.956;2023-05-20T05:06:16;98959.38;;;15.51;82.03
18697;BME280;22617;43.690;27.956;2023-05-20T05:11:21;98953.22;;;15.52;81.46
18697;BME280;22617;43.690;27.956;2023-05-20T05:16:25;98952.59;;;15.78;81.67
18697;BME280;22617;43.690;27.956;2023-05-20T05:21:29;98958.50;;;15.86;79.97
18697;BME280;22617;43.690;27.956;2023-05-20T05:26:34;98953.03;;;15.93;79.93
18697;BME280;22617;43.690;27.956;2023-05-20T05:31:38;98960.47;;;16.10;79.02
18697;BME280;22617;43.690;27.956;2023-05-20T05:36:42;98951.22;;;16.28;79.01
18697;BME280;22617;43.690;27.956;2023-05-20T05:41:47;98942.59;;;16.23;78.14
18697;BME280;22617;43.690;27.956;2023-05-20T05:46:51;98945.97;;;16.28;79.96
18697;BME280;22617;43.690;27.956;2023-05-20T05:51:55;98954.47;;;16.36;79.45
18697;BME280;22617;43.690;27.956;2023-05-20T05:57:00;98957.53;;;16.53;79.57
18697;BME280;22617;43.690;27.956;2023-05-20T06:02:07;98955.03;;;16.48;79.63
18697;BME280;22617;43.690;27.956;2023-05-20T06:07:12;98962.09;;;16.46;80.41
18697;BME280;22617;43.690;27.956;2023-05-20T06:12:17;98956.97;;;16.73;78.52
18697;BME280;22617;43.690;27.956;2023-05-20T06:17:21;98967.72;;;16.94;77.97
18697;BME280;22617;43.690;27.956;2023-05-20T06:22:24;98967.78;;;17.21;77.70
18697;BME280;22617;43.690;27.956;2023-05-20T06:27:30;98968.19;;;17.64;77.10
18697;BME280;22617;43.690;27.956;2023-05-20T06:32:33;98975.69;;;17.75;76.22
18697;BME280;22617;43.690;27.956;2023-05-20T06:37:37;98986.41;;;17.97;76.01
18697;BME280;22617;43.690;27.956;2023-05-20T06:42:43;98976.72;;;17.97;75.55
18697;BME280;22617;43.690;27.956;2023-05-20T06:47:47;98985.00;;;17.86;74.70
18697;BME280;22617;43.690;27.956;2023-05-20T06:52:51;98993.31;;;17.74;75.94
18697;BME280;22617;43.690;27.956;2023-05-20T06:57:56;98996.88;;;17.46;76.57
18697;BME280;22617;43.690;27.956;2023-05-20T07:03:01;98998.78;;;17.68;76.79
18697;BME280;22617;43.690;27.956;2023-05-20T07:08:05;98995.78;;;17.51;76.98
18697;BME280;22617;43.690;27.956;2023-05-20T07:13:10;98995.34;;;17.66;77.06
18697;BME280;22617;43.690;27.956;2023-05-20T07:18:15;99005.84;;;17.68;76.71
18697;BME280;22617;43.690;27.956;2023-05-20T07:23:25;98991.75;;;17.69;76.28
18697;BME280;22617;43.690;27.956;2023-05-20T07:28:31;98992.69;;;17.66;76.82
18697;BME280;22617;43.690;27.956;2023-05-20T07:33:36;98985.00;;;17.86;76.67
18697;BME280;22617;43.690;27.956;2023-05-20T07:38:40;98986.28;;;18.00;76.14
18697;BME280;22617;43.690;27.956;2023-05-20T07:44:06;98989.31;;;18.39;75.41
18697;BME280;22617;43.690;27.956;2023-05-20T07:49:15;98997.25;;;18.39;75.05
18697;BME280;22617;43.690;27.956;2023-05-20T07:54:20;98998.81;;;18.44;74.38
18697;BME280;22617;43.690;27.956;2023-05-20T07:59:27;98999.16;;;18.60;74.50
18697;BME280;22617;43.690;27.956;2023-05-20T08:04:32;99001.50;;;18.43;73.63
18697;BME280;22617;43.690;27.956;2023-05-20T08:09:36;99004.53;;;18.57;74.07
18697;BME280;22617;43.690;27.956;2023-05-20T08:14:42;99000.28;;;18.76;73.85
18697;BME280;22617;43.690;27.956;2023-05-20T08:19:46;98989.25;;;19.11;73.48
18697;BME280;22617;43.690;27.956;2023-05-20T08:24:50;98989.75;;;19.44;72.51
18697;BME280;22617;43.690;27.956;2023-05-20T08:29:56;99001.75;;;19.75;70.44
18697;BME280;22617;43.690;27.956;2023-05-20T08:35:03;98989.47;;;19.94;70.67
18697;BME280;22617;43.690;27.956;2023-05-20T08:40:08;98987.38;;;20.81;69.94
18697;BME280;22617;43.690;27.956;2023-05-20T08:45:16;98987.22;;;21.59;67.15
18697;BME280;22617;43.690;27.956;2023-05-20T08:50:22;98991.84;;;22.26;65.18
18697;BME280;22617;43.690;27.956;2023-05-20T08:55:31;98988.09;;;22.30;64.76
18697;BME280;22617;43.690;27.956;2023-05-20T09:00:41;98981.00;;;22.81;64.59
18697;BME280;22617;43.690;27.956;2023-05-20T09:05:45;98982.28;;;23.54;64.35
18697;BME280;22617;43.690;27.956;2023-05-20T09:10:51;98985.88;;;23.53;62.37
18697;BME280;22617;43.690;27.956;2023-05-20T09:15:58;98974.00;;;24.19;62.45
18697;BME280;22617;43.690;27.956;2023-05-20T09:21:04;98969.06;;;24.42;61.79
18697;BME280;22617;43.690;27.956;2023-05-20T09:26:08;98969.47;;;24.50;61.34
18697;BME280;22617;43.690;27.956;2023-05-20T09:31:14;98977.91;;;23.53;61.05
18697;BME280;22617;43.690;27.956;2023-05-20T09:36:18;98966.81;;;23.29;61.85
18697;BME280;22617;43.690;27.956;2023-05-20T09:41:23;98960.19;;;23.04;61.78
18697;BME280;22617;43.690;27.956;2023-05-20T09:46:35;98948.63;;;23.21;62.17
18697;BME280;22617;43.690;27.956;2023-05-20T09:51:39;98949.03;;;22.82;62.62
18697;BME280;22617;43.690;27.956;2023-05-20T09:56:45;98959.31;;;22.88;56.78
18697;BME280;22617;43.690;27.956;2023-05-20T10:01:50;98944.41;;;23.17;54.95
18697;BME280;22617;43.690;27.956;2023-05-20T10:07:17;98946.81;;;23.37;49.93
18697;BME280;22617;43.690;27.956;2023-05-20T10:12:48;98935.44;;;23.81;49.45
18697;BME280;22617;43.690;27.956;2023-05-20T10:18:05;98936.44;;;24.66;46.03
18697;BME280;22617;43.690;27.956;2023-05-20T10:23:19;98933.81;;;25.36;45.41
18697;BME280;22617;43.690;27.956;2023-05-20T10:28:30;98929.81;;;25.70;44.37
18697;BME280;22617;43.690;27.956;2023-05-20T10:33:42;98911.53;;;26.28;44.81
18697;BME280;22617;43.690;27.956;2023-05-20T10:38:53;98909.16;;;26.74;43.14
18697;BME280;22617;43.690;27.956;2023-05-20T10:44:01;98903.69;;;26.88;41.55
18697;BME280;22617;43.690;27.956;2023-05-20T10:49:16;98895.97;;;26.97;42.17
18697;BME280;22617;43.690;27.956;2023-05-20T10:54:25;98886.94;;;27.10;41.71
18697;BME280;22617;43.690;27.956;2023-05-20T10:59:30;98894.25;;;27.32;41.51
18697;BME280;22617;43.690;27.956;2023-05-20T11:04:35;98890.28;;;27.01;40.23
18697;BME280;22617;43.690;27.956;2023-05-20T11:09:48;98889.94;;;27.06;40.57
18697;BME280;22617;43.690;27.956;2023-05-20T11:14:52;98889.75;;;26.96;41.45
18697;BME280;22617;43.690;27.956;2023-05-20T11:19:57;98876.63;;;26.68;41.27
18697;BME280;22617;43.690;27.956;2023-05-20T11:25:08;98870.44;;;26.67;42.82
18697;BME280;22617;43.690;27.956;2023-05-20T11:30:18;98869.78;;;25.48;43.24
18697;BME280;22617;43.690;27.956;2023-05-20T11:35:30;98867.63;;;25.68;42.14
18697;BME280;22617;43.690;27.956;2023-05-20T11:40:35;98884.13;;;25.33;42.60
18697;BME280;22617;43.690;27.956;2023-05-20T11:45:55;98875.78;;;25.25;43.44
18697;BME280;22617;43.690;27.956;2023-05-20T11:51:03;98856.94;;;25.55;42.56
18697;BME280;22617;43.690;27.956;2023-05-20T11:56:07;98872.09;;;25.13;42.59
18697;BME280;22617;43.690;27.956;2023-05-20T12:01:13;98869.38;;;25.28;41.69
18697;BME280;22617;43.690;27.956;2023-05-20T12:06:27;98853.69;;;25.89;42.04
18697;BME280;22617;43.690;27.956;2023-05-20T12:11:37;98850.34;;;25.86;41.83
18697;BME280;22617;43.690;27.956;2023-05-20T12:16:44;98849.59;;;25.44;40.88
18697;BME280;22617;43.690;27.956;2023-05-20T12:21:53;98840.53;;;25.99;40.41
18697;BME280;22617;43.690;27.956;2023-05-20T12:26:57;98831.31;;;25.78;41.06
18697;BME280;22617;43.690;27.956;2023-05-20T12:32:05;98843.69;;;25.66;39.79
18697;BME280;22617;43.690;27.956;2023-05-20T12:37:12;98825.16;;;26.02;39.39
18697;BME280;22617;43.690;27.956;2023-05-20T12:42:19;98827.09;;;27.11;39.76
18697;BME280;22617;43.690;27.956;2023-05-20T12:47:29;98841.97;;;26.79;40.24
18697;BME280;22617;43.690;27.956;2023-05-20T12:52:39;98835.16;;;25.86;40.21
18697;BME280;22617;43.690;27.956;2023-05-20T12:57:46;98833.63;;;25.57;41.74
18697;BME280;22617;43.690;27.956;2023-05-20T13:02:51;98825.13;;;24.98;41.59
18697;BME280;22617;43.690;27.956;2023-05-20T13:08:03;98818.50;;;25.31;41.09
18697;BME280;22617;43.690;27.956;2023-05-20T13:13:12;98827.50;;;25.15;41.27
18697;BME280;22617;43.690;27.956;2023-05-20T13:18:24;98817.59;;;24.91;39.61
18697;BME280;22617;43.690;27.956;2023-05-20T13:23:33;98807.91;;;24.61;43.07
18697;BME280;22617;43.690;27.956;2023-05-20T13:28:40;98806.72;;;24.53;41.84
18697;BME280;22617;43.690;27.956;2023-05-20T13:34:01;98812.56;;;24.17;41.88
18697;BME280;22617;43.690;27.956;2023-05-20T13:39:14;98814.13;;;24.62;43.77
18697;BME280;22617;43.690;27.956;2023-05-20T13:44:21;98816.19;;;24.71;44.40
18697;BME280;22617;43.690;27.956;2023-05-20T13:49:30;98811.00;;;24.96;44.73
18697;BME280;22617;43.690;27.956;2023-05-20T13:54:41;98798.22;;;25.01;44.56
18697;BME280;22617;43.690;27.956;2023-05-20T13:59:51;98800.00;;;24.88;43.56
18697;BME280;22617;43.690;27.956;2023-05-20T14:04:57;98792.69;;;24.63;44.27
18697;BME280;22617;43.690;27.956;2023-05-20T14:10:09;98784.75;;;24.35;43.30
18697;BME280;22617;43.690;27.956;2023-05-20T14:15:20;98795.22;;;24.38;42.90
18697;BME280;22617;43.690;27.956;2023-05-20T14:20:27;98791.03;;;24.34;43.05
18697;BME280;22617;43.690;27.956;2023-05-20T14:25:34;98794.84;;;24.44;44.02
18697;BME280;22617;43.690;27.956;2023-05-20T14:30:40;98780.09;;;24.39;43.63
18697;BME280;22617;43.690;27.956;2023-05-20T14:35:48;98789.78;;;24.54;44.28
18697;BME280;22617;43.690;27.956;2023-05-20T14:40:58;98782.06;;;24.49;44.38
18697;BME280;22617;43.690;27.956;2023-05-20T14:46:10;98787.03;;;24.55;44.53
18697;BME280;22617;43.690;27.956;2023-05-20T14:51:19;98795.31;;;24.37;44.64
18697;BME280;22617;43.690;27.956;2023-05-20T14:56:33;98789.31;;;24.05;43.14
18697;BME280;22617;43.690;27.956;2023-05-20T15:01:44;98793.47;;;24.09;43.42
18697;BME280;22617;43.690;27.956;2023-05-20T15:06:51;98789.88;;;23.96;43.81
18697;BME280;22617;43.690;27.956;2023-05-20T15:12:07;98786.94;;;24.00;44.19
18697;BME280;22617;43.690;27.956;2023-05-20T15:17:14;98789.19;;;23.64;44.24
18697;BME280;22617;43.690;27.956;2023-05-20T15:22:24;98780.59;;;23.44;42.87
18697;BME280;22617;43.690;27.956;2023-05-20T15:27:32;98790.03;;;23.34;41.80
18697;BME280;22617;43.690;27.956;2023-05-20T15:32:39;98792.13;;;23.29;42.18
18697;BME280;22617;43.690;27.956;2023-05-20T15:37:46;98791.06;;;23.02;42.46
18697;BME280;22617;43.690;27.956;2023-05-20T15:42:55;98785.66;;;23.03;42.36
18697;BME280;22617;43.690;27.956;2023-05-20T15:48:02;98787.09;;;23.09;42.86
18697;BME280;22617;43.690;27.956;2023-05-20T15:53:08;98776.59;;;23.22;43.31
18697;BME280;22617;43.690;27.956;2023-05-20T15:58:17;98781.19;;;23.34;42.57
18697;BME280;22617;43.690;27.956;2023-05-20T16:03:35;98778.47;;;23.35;42.53
18697;BME280;22617;43.690;27.956;2023-05-20T16:09:19;98774.03;;;23.20;42.24
18697;BME280;22617;43.690;27.956;2023-05-20T16:14:27;98771.56;;;22.87;42.00
18697;BME280;22617;43.690;27.956;2023-05-20T16:19:48;98784.41;;;22.64;42.51
18697;BME280;22617;43.690;27.956;2023-05-20T16:25:00;98783.88;;;22.41;42.76
18697;BME280;22617;43.690;27.956;2023-05-20T16:30:26;98780.19;;;22.28;43.07
18697;BME280;22617;43.690;27.956;2023-05-20T16:35:35;98772.38;;;22.09;43.59
18697;BME280;22617;43.690;27.956;2023-05-20T16:40:42;98779.91;;;22.01;43.70
18697;BME280;22617;43.690;27.956;2023-05-20T16:45:52;98771.31;;;21.96;44.05
18697;BME280;22617;43.690;27.956;2023-05-20T16:51:24;98763.56;;;21.92;44.34
18697;BME280;22617;43.690;27.956;2023-05-20T17:04:10;98758.97;;;21.62;44.72
18697;BME280;22617;43.690;27.956;2023-05-20T17:09:13;98753.03;;;21.57;45.00
18697;BME280;22617;43.690;27.956;2023-05-20T17:14:17;98759.13;;;21.42;45.87
18697;BME280;22617;43.690;27.956;2023-05-20T17:19:22;98764.81;;;21.52;46.33
18697;BME280;22617;43.690;27.956;2023-05-20T17:24:26;98767.47;;;21.52;45.97
18697;BME280;22617;43.690;27.956;2023-05-20T17:29:30;98757.25;;;21.44;46.32
18697;BME280;22617;43.690;27.956;2023-05-20T17:34:35;98764.56;;;21.39;46.27
18697;BME280;22617;43.690;27.956;2023-05-20T17:39:40;98757.25;;;21.27;46.77
18697;BME280;22617;43.690;27.956;2023-05-20T17:44:44;98754.16;;;21.19;46.97
18697;BME280;22617;43.690;27.956;2023-05-20T17:49:49;98751.78;;;21.13;47.29
18697;BME280;22617;43.690;27.956;2023-05-20T17:54:53;98756.84;;;21.00;47.63
18697;BME280;22617;43.690;27.956;2023-05-20T17:59:57;98757.28;;;20.91;47.99
18697;BME280;22617;43.690;27.956;2023-05-20T18:05:03;98765.09;;;20.94;47.74
18697;BME280;22617;43.690;27.956;2023-05-20T18:10:07;98762.41;;;20.77;48.66
18697;BME280;22617;43.690;27.956;2023-05-20T18:15:12;98771.53;;;20.71;48.35
18697;BME280;22617;43.690;27.956;2023-05-20T18:20:20;98783.16;;;20.86;48.06
18697;BME280;22617;43.690;27.956;2023-05-20T18:25:24;98783.41;;;20.63;48.83
18697;BME280;22617;43.690;27.956;2023-05-20T18:30:27;98791.13;;;20.67;48.85
18697;BME280;22617;43.690;27.956;2023-05-20T18:35:32;98790.94;;;20.53;49.18
18697;BME280;22617;43.690;27.956;2023-05-20T18:40:36;98786.59;;;20.33;50.30
18697;BME280;22617;43.690;27.956;2023-05-20T18:45:40;98792.25;;;20.24;50.13
18697;BME280;22617;43.690;27.956;2023-05-20T18:50:45;98788.84;;;20.22;50.47
18697;BME280;22617;43.690;27.956;2023-05-20T18:55:48;98788.69;;;20.07;50.57
18697;BME280;22617;43.690;27.956;2023-05-20T19:00:52;98779.19;;;20.02;50.88
18697;BME280;22617;43.690;27.956;2023-05-20T19:05:58;98772.59;;;19.92;50.99
18697;BME280;22617;43.690;27.956;2023-05-20T19:11:02;98760.50;;;19.87;51.24
18697;BME280;22617;43.690;27.956;2023-05-20T19:16:06;98759.53;;;19.69;51.56
18697;BME280;22617;43.690;27.956;2023-05-20T19:21:11;98756.44;;;19.59;52.20
18697;BME280;22617;43.690;27.956;2023-05-20T19:26:15;98756.66;;;19.55;52.30
18697;BME280;22617;43.690;27.956;2023-05-20T19:31:18;98747.72;;;19.57;52.08
18697;BME280;22617;43.690;27.956;2023-05-20T19:36:24;98753.94;;;19.36;52.32
18697;BME280;22617;43.690;27.956;2023-05-20T19:41:28;98754.91;;;19.13;53.40
18697;BME280;22617;43.690;27.956;2023-05-20T19:46:31;98756.03;;;19.08;53.56
18697;BME280;22617;43.690;27.956;2023-05-20T19:51:37;98748.97;;;19.08;53.38
18697;BME280;22617;43.690;27.956;2023-05-20T19:56:41;98748.56;;;18.97;53.95
18697;BME280;22617;43.690;27.956;2023-05-20T20:01:44;98754.47;;;18.82;54.21
18697;BME280;22617;43.690;27.956;2023-05-20T20:06:49;98747.03;;;18.48;55.12
18697;BME280;22617;43.690;27.956;2023-05-20T20:11:53;98750.69;;;18.44;55.24
18697;BME280;22617;43.690;27.956;2023-05-20T20:16:57;98744.97;;;18.33;55.81
18697;BME280;22617;43.690;27.956;2023-05-20T20:22:03;98730.50;;;18.21;56.10
18697;BME280;22617;43.690;27.956;2023-05-20T20:27:06;98721.47;;;18.05;56.58
18697;BME280;22617;43.690;27.956;2023-05-20T20:32:10;98730.53;;;17.98;56.96
18697;BME280;22617;43.690;27.956;2023-05-20T20:37:15;98721.47;;;18.05;57.07
18697;BME280;22617;43.690;27.956;2023-05-20T20:42:19;98714.94;;;17.92;57.40
18697;BME280;22617;43.690;27.956;2023-05-20T20:47:23;98718.50;;;17.91;57.46
18697;BME280;22617;43.690;27.956;2023-05-20T20:52:31;98715.31;;;17.83;57.89
18697;BME280;22617;43.690;27.956;2023-05-20T20:57:35;98720.56;;;17.83;58.38
18697;BME280;22617;43.690;27.956;2023-05-20T21:02:38;98724.13;;;17.82;58.03
18697;BME280;22617;43.690;27.956;2023-05-20T21:07:44;98732.25;;;17.76;57.78
18697;BME280;22617;43.690;27.956;2023-05-20T21:12:51;98732.63;;;17.65;58.16
18697;BME280;22617;43.690;27.956;2023-05-20T21:17:54;98735.44;;;17.61;58.36
18697;BME280;22617;43.690;27.956;2023-05-20T21:22:59;98725.72;;;17.38;58.94
18697;BME280;22617;43.690;27.956;2023-05-20T21:28:03;98728.03;;;17.22;59.67
18697;BME280;22617;43.690;27.956;2023-05-20T21:33:06;98725.53;;;17.18;60.54
18697;BME280;22617;43.690;27.956;2023-05-20T21:38:11;98726.31;;;17.21;61.03
18697;BME280;22617;43.690;27.956;2023-05-20T21:43:15;98712.22;;;17.22;61.33
18697;BME280;22617;43.690;27.956;2023-05-20T21:48:19;98710.59;;;17.18;61.77
18697;BME280;22617;43.690;27.956;2023-05-20T21:53:24;98692.38;;;17.12;62.01
18697;BME280;22617;43.690;27.956;2023-05-20T21:58:27;98684.06;;;16.99;61.60
18697;BME280;22617;43.690;27.956;2023-05-20T22:03:31;98676.53;;;16.89;62.24
18697;BME280;22617;43.690;27.956;2023-05-20T22:08:38;98677.31;;;16.92;62.75
18697;BME280;22617;43.690;27.956;2023-05-20T22:13:41;98673.09;;;16.87;63.18
18697;BME280;22617;43.690;27.956;2023-05-20T22:18:45;98674.13;;;16.83;63.52
18697;BME280;22617;43.690;27.956;2023-05-20T22:23:52;98671.66;;;16.78;63.60
18697;BME280;22617;43.690;27.956;2023-05-20T22:28:55;98664.81;;;16.73;63.83
18697;BME280;22617;43.690;27.956;2023-05-20T22:33:59;98676.38;;;16.69;63.55
18697;BME280;22617;43.690;27.956;2023-05-20T22:39:04;98664.91;;;16.70;63.80
18697;BME280;22617;43.690;27.956;2023-05-20T22:44:08;98668.72;;;16.61;63.70
18697;BME280;22617;43.690;27.956;2023-05-20T22:49:12;98673.59;;;16.45;64.03
18697;BME280;22617;43.690;27.956;2023-05-20T22:54:17;98673.19;;;16.57;63.95
18697;BME280;22617;43.690;27.956;2023-05-20T22:59:20;98673.19;;;16.57;63.73
18697;BME280;22617;43.690;27.956;2023-05-20T23:04:25;98676.47;;;16.66;63.43
18697;BME280;22617;43.690;27.956;2023-05-20T23:09:30;98667.94;;;16.59;63.36
18697;BME280;22617;43.690;27.956;2023-05-20T23:14:33;98669.75;;;16.55;63.60
18697;BME280;22617;43.690;27.956;2023-05-20T23:19:37;98666.53;;;16.47;62.79
18697;BME280;22617;43.690;27.956;2023-05-20T23:24:42;98677.19;;;16.43;62.81
18697;BME280;22617;43.690;27.956;2023-05-20T23:29:46;98658.41;;;16.27;62.91
18697;BME280;22617;43.690;27.956;2023-05-20T23:34:49;98663.06;;;16.19;63.06
18697;BME280;22617;43.690;27.956;2023-05-20T23:39:55;98665.25;;;16.33;63.12
18697;BME280;22617;43.690;27.956;2023-05-20T23:44:59;98658.72;;;16.18;62.88
18697;BME280;22617;43.690;27.956;2023-05-20T23:50:06;98660.03;;;16.05;63.51
18697;BME280;22617;43.690;27.956;2023-05-20T23:55:11;98653.84;;;16.06;63.38
